sensor_id;sensor_type;location;lat;lon;timestamp;temperature;humidity
15879;DHT22;61999;51.514;14.614;2022-11-23T00:01:15;-2.20;70.20
15879;DHT22;61999;51.514;14.614;2022-11-23T00:03:44;-2.20;69.60
15879;DHT22;61999;51.514;14.614;2022-11-23T00:06:14;-2.30;69.20
15879;DHT22;61999;51.514;14.614;2022-11-23T00:08:44;-2.30;69.60
15879;DHT22;61999;51.514;14.614;2022-11-23T00:11:12;-2.20;69.80
15879;DHT22;61999;51.514;14.614;2022-11-23T00:13:41;-2.20;69.30
15879;DHT22;61999;51.514;14.614;2022-11-23T00:16:12;-2.30;69.00
15879;DHT22;61999;51.514;14.614;2022-11-23T00:18:41;-2.40;69.40
15879;DHT22;61999;51.514;14.614;2022-11-23T00:21:11;-2.50;69.50
15879;DHT22;61999;51.514;14.614;2022-11-23T00:23:40;-2.50;69.90
15879;DHT22;61999;51.514;14.614;2022-11-23T00:26:09;-2.40;70.20
15879;DHT22;61999;51.514;14.614;2022-11-23T00:28:38;-2.30;70.20
15879;DHT22;61999;51.514;14.614;2022-11-23T00:31:06;-2.30;70.20
15879;DHT22;61999;51.514;14.614;2022-11-23T00:33:35;-2.30;70.10
15879;DHT22;61999;51.514;14.614;2022-11-23T00:36:06;-2.20;70.10
15879;DHT22;61999;51.514;14.614;2022-11-23T00:38:37;-2.20;70.10
15879;DHT22;61999;51.514;14.614;2022-11-23T00:41:07;-2.20;70.10
15879;DHT22;61999;51.514;14.614;2022-11-23T00:43:38;-2.10;70.10
15879;DHT22;61999;51.514;14.614;2022-11-23T00:46:09;-2.20;69.80
15879;DHT22;61999;51.514;14.614;2022-11-23T00:48:40;-2.10;69.70
15879;DHT22;61999;51.514;14.614;2022-11-23T00:51:10;-2.10;69.60
15879;DHT22;61999;51.514;14.614;2022-11-23T00:53:39;-2.10;69.50
15879;DHT22;61999;51.514;14.614;2022-11-23T00:56:07;-2.10;69.60
15879;DHT22;61999;51.514;14.614;2022-11-23T00:58:37;-2.00;69.80
15879;DHT22;61999;51.514;14.614;2022-11-23T01:01:07;-2.00;69.60
15879;DHT22;61999;51.514;14.614;2022-11-23T01:03:38;-2.00;69.50
15879;DHT22;61999;51.514;14.614;2022-11-23T01:06:09;-1.90;70.40
15879;DHT22;61999;51.514;14.614;2022-11-23T01:08:38;-1.90;69.60
15879;DHT22;61999;51.514;14.614;2022-11-23T01:11:09;-1.90;69.70
15879;DHT22;61999;51.514;14.614;2022-11-23T01:13:40;-1.80;69.70
15879;DHT22;61999;51.514;14.614;2022-11-23T01:16:12;-1.80;69.50
15879;DHT22;61999;51.514;14.614;2022-11-23T01:18:43;-1.80;69.40
15879;DHT22;61999;51.514;14.614;2022-11-23T01:21:11;-1.80;69.20
15879;DHT22;61999;51.514;14.614;2022-11-23T01:23:39;-1.70;69.30
15879;DHT22;61999;51.514;14.614;2022-11-23T01:26:08;-1.70;69.20
15879;DHT22;61999;51.514;14.614;2022-11-23T01:28:39;-1.70;69.10
15879;DHT22;61999;51.514;14.614;2022-11-23T01:31:09;-1.70;69.10
15879;DHT22;61999;51.514;14.614;2022-11-23T01:33:39;-1.70;69.10
15879;DHT22;61999;51.514;14.614;2022-11-23T01:36:09;-1.70;69.10
15879;DHT22;61999;51.514;14.614;2022-11-23T01:38:37;-1.70;69.00
15879;DHT22;61999;51.514;14.614;2022-11-23T01:41:06;-1.70;69.00
15879;DHT22;61999;51.514;14.614;2022-11-23T01:43:35;-1.70;68.90
15879;DHT22;61999;51.514;14.614;2022-11-23T01:46:05;-1.60;68.90
15879;DHT22;61999;51.514;14.614;2022-11-23T01:48:37;-1.70;68.80
15879;DHT22;61999;51.514;14.614;2022-11-23T01:51:10;-1.60;68.80
15879;DHT22;61999;51.514;14.614;2022-11-23T01:53:41;-1.60;68.70
15879;DHT22;61999;51.514;14.614;2022-11-23T01:56:15;-1.60;68.50
15879;DHT22;61999;51.514;14.614;2022-11-23T01:58:49;-1.70;68.40
15879;DHT22;61999;51.514;14.614;2022-11-23T02:01:21;-1.80;67.60
15879;DHT22;61999;51.514;14.614;2022-11-23T02:03:50;-1.80;67.60
15879;DHT22;61999;51.514;14.614;2022-11-23T02:06:20;-1.90;67.60
15879;DHT22;61999;51.514;14.614;2022-11-23T02:08:50;-1.90;67.90
15879;DHT22;61999;51.514;14.614;2022-11-23T02:11:19;-1.90;67.90
15879;DHT22;61999;51.514;14.614;2022-11-23T02:13:49;-1.90;67.80
15879;DHT22;61999;51.514;14.614;2022-11-23T02:16:18;-1.90;68.00
15879;DHT22;61999;51.514;14.614;2022-11-23T02:18:49;-1.90;68.00
15879;DHT22;61999;51.514;14.614;2022-11-23T02:21:18;-2.00;67.90
15879;DHT22;61999;51.514;14.614;2022-11-23T02:23:51;-2.00;68.00
15879;DHT22;61999;51.514;14.614;2022-11-23T02:26:28;-2.10;67.80
15879;DHT22;61999;51.514;14.614;2022-11-23T02:29:02;-2.10;68.00
15879;DHT22;61999;51.514;14.614;2022-11-23T02:31:34;-2.20;67.90
15879;DHT22;61999;51.514;14.614;2022-11-23T02:34:02;-2.20;68.20
15879;DHT22;61999;51.514;14.614;2022-11-23T02:36:36;-2.20;68.20
15879;DHT22;61999;51.514;14.614;2022-11-23T02:39:09;-2.30;68.20
15879;DHT22;61999;51.514;14.614;2022-11-23T02:41:41;-2.20;68.20
15879;DHT22;61999;51.514;14.614;2022-11-23T02:44:32;-2.30;68.10
15879;DHT22;61999;51.514;14.614;2022-11-23T02:47:06;-2.40;68.40
15879;DHT22;61999;51.514;14.614;2022-11-23T02:49:37;-2.50;68.70
15879;DHT22;61999;51.514;14.614;2022-11-23T02:52:07;-2.50;68.70
15879;DHT22;61999;51.514;14.614;2022-11-23T02:54:36;-2.50;68.60
15879;DHT22;61999;51.514;14.614;2022-11-23T02:57:05;-2.50;68.40
15879;DHT22;61999;51.514;14.614;2022-11-23T02:59:33;-2.50;68.20
15879;DHT22;61999;51.514;14.614;2022-11-23T03:02:03;-2.50;68.10
15879;DHT22;61999;51.514;14.614;2022-11-23T03:04:31;-2.50;68.10
15879;DHT22;61999;51.514;14.614;2022-11-23T03:06:59;-2.60;68.20
15879;DHT22;61999;51.514;14.614;2022-11-23T03:09:27;-2.60;68.00
15879;DHT22;61999;51.514;14.614;2022-11-23T03:11:55;-2.60;67.90
15879;DHT22;61999;51.514;14.614;2022-11-23T03:14:24;-2.70;67.80
15879;DHT22;61999;51.514;14.614;2022-11-23T03:16:52;-2.70;67.60
15879;DHT22;61999;51.514;14.614;2022-11-23T03:19:20;-2.70;67.50
15879;DHT22;61999;51.514;14.614;2022-11-23T03:21:48;-2.70;67.50
15879;DHT22;61999;51.514;14.614;2022-11-23T03:24:16;-2.70;67.40
15879;DHT22;61999;51.514;14.614;2022-11-23T03:26:44;-2.80;67.30
15879;DHT22;61999;51.514;14.614;2022-11-23T03:29:11;-2.90;67.50
15879;DHT22;61999;51.514;14.614;2022-11-23T03:31:41;-2.90;67.90
15879;DHT22;61999;51.514;14.614;2022-11-23T03:34:09;-2.90;67.90
15879;DHT22;61999;51.514;14.614;2022-11-23T03:36:37;-2.90;67.70
15879;DHT22;61999;51.514;14.614;2022-11-23T03:39:05;-2.90;67.60
15879;DHT22;61999;51.514;14.614;2022-11-23T03:41:33;-2.90;67.50
15879;DHT22;61999;51.514;14.614;2022-11-23T03:44:01;-3.00;67.40
15879;DHT22;61999;51.514;14.614;2022-11-23T03:46:29;-3.00;67.50
15879;DHT22;61999;51.514;14.614;2022-11-23T03:48:59;-3.00;67.40
15879;DHT22;61999;51.514;14.614;2022-11-23T03:51:26;-3.00;67.40
15879;DHT22;61999;51.514;14.614;2022-11-23T03:53:54;-3.10;67.20
15879;DHT22;61999;51.514;14.614;2022-11-23T03:56:22;-3.10;67.20
15879;DHT22;61999;51.514;14.614;2022-11-23T03:58:50;-3.10;67.20
15879;DHT22;61999;51.514;14.614;2022-11-23T04:01:18;-3.10;67.10
15879;DHT22;61999;51.514;14.614;2022-11-23T04:03:45;-3.10;67.10
15879;DHT22;61999;51.514;14.614;2022-11-23T04:06:15;-3.20;67.00
15879;DHT22;61999;51.514;14.614;2022-11-23T04:08:42;-3.20;67.00
15879;DHT22;61999;51.514;14.614;2022-11-23T04:11:10;-3.20;67.00
15879;DHT22;61999;51.514;14.614;2022-11-23T04:13:38;-3.20;66.90
15879;DHT22;61999;51.514;14.614;2022-11-23T04:16:06;-3.20;67.00
15879;DHT22;61999;51.514;14.614;2022-11-23T04:18:34;-3.30;66.80
15879;DHT22;61999;51.514;14.614;2022-11-23T04:21:02;-3.30;66.90
15879;DHT22;61999;51.514;14.614;2022-11-23T04:23:31;-3.30;66.80
15879;DHT22;61999;51.514;14.614;2022-11-23T04:25:59;-3.30;66.90
15879;DHT22;61999;51.514;14.614;2022-11-23T04:28:27;-3.30;66.90
15879;DHT22;61999;51.514;14.614;2022-11-23T04:30:55;-3.30;66.90
15879;DHT22;61999;51.514;14.614;2022-11-23T04:33:24;-3.40;66.70
15879;DHT22;61999;51.514;14.614;2022-11-23T04:35:52;-3.50;66.60
15879;DHT22;61999;51.514;14.614;2022-11-23T04:38:19;-3.60;67.20
15879;DHT22;61999;51.514;14.614;2022-11-23T04:40:49;-3.70;67.90
15879;DHT22;61999;51.514;14.614;2022-11-23T04:43:16;-3.80;68.50
15879;DHT22;61999;51.514;14.614;2022-11-23T04:45:44;-3.80;68.80
15879;DHT22;61999;51.514;14.614;2022-11-23T04:48:12;-3.70;68.60
15879;DHT22;61999;51.514;14.614;2022-11-23T04:50:40;-3.60;68.70
15879;DHT22;61999;51.514;14.614;2022-11-23T04:53:10;-3.60;68.80
15879;DHT22;61999;51.514;14.614;2022-11-23T04:55:38;-3.60;68.70
15879;DHT22;61999;51.514;14.614;2022-11-23T04:58:07;-3.60;68.60
15879;DHT22;61999;51.514;14.614;2022-11-23T05:00:35;-3.50;68.60
15879;DHT22;61999;51.514;14.614;2022-11-23T05:03:03;-3.50;68.50
15879;DHT22;61999;51.514;14.614;2022-11-23T05:05:31;-3.50;68.40
15879;DHT22;61999;51.514;14.614;2022-11-23T05:07:59;-3.40;68.40
15879;DHT22;61999;51.514;14.614;2022-11-23T05:10:26;-3.40;68.20
15879;DHT22;61999;51.514;14.614;2022-11-23T05:12:54;-3.40;68.20
15879;DHT22;61999;51.514;14.614;2022-11-23T05:15:24;-3.50;68.20
15879;DHT22;61999;51.514;14.614;2022-11-23T05:17:52;-3.50;68.30
15879;DHT22;61999;51.514;14.614;2022-11-23T05:20:24;-3.50;68.30
15879;DHT22;61999;51.514;14.614;2022-11-23T05:22:52;-3.60;68.50
15879;DHT22;61999;51.514;14.614;2022-11-23T05:25:20;-3.60;68.70
15879;DHT22;61999;51.514;14.614;2022-11-23T05:27:48;-3.70;68.90
15879;DHT22;61999;51.514;14.614;2022-11-23T05:30:16;-3.70;69.20
15879;DHT22;61999;51.514;14.614;2022-11-23T05:32:45;-3.70;69.00
15879;DHT22;61999;51.514;14.614;2022-11-23T05:35:13;-3.60;69.00
15879;DHT22;61999;51.514;14.614;2022-11-23T05:37:42;-3.60;68.80
15879;DHT22;61999;51.514;14.614;2022-11-23T05:40:10;-3.60;68.70
15879;DHT22;61999;51.514;14.614;2022-11-23T05:42:39;-3.60;68.60
15879;DHT22;61999;51.514;14.614;2022-11-23T05:45:07;-3.60;68.60
15879;DHT22;61999;51.514;14.614;2022-11-23T05:47:37;-3.50;68.70
15879;DHT22;61999;51.514;14.614;2022-11-23T05:50:07;-3.60;68.40
15879;DHT22;61999;51.514;14.614;2022-11-23T05:52:36;-3.60;68.60
15879;DHT22;61999;51.514;14.614;2022-11-23T05:55:04;-3.60;68.70
15879;DHT22;61999;51.514;14.614;2022-11-23T05:57:32;-3.60;69.00
15879;DHT22;61999;51.514;14.614;2022-11-23T06:00:00;-3.60;69.00
15879;DHT22;61999;51.514;14.614;2022-11-23T06:02:28;-3.60;69.00
15879;DHT22;61999;51.514;14.614;2022-11-23T06:04:56;-3.50;69.10
15879;DHT22;61999;51.514;14.614;2022-11-23T06:07:25;-3.50;69.10
15879;DHT22;61999;51.514;14.614;2022-11-23T06:09:53;-3.40;69.20
15879;DHT22;61999;51.514;14.614;2022-11-23T06:12:21;-3.50;68.70
15879;DHT22;61999;51.514;14.614;2022-11-23T06:14:48;-3.60;68.90
15879;DHT22;61999;51.514;14.614;2022-11-23T06:17:16;-3.70;69.20
15879;DHT22;61999;51.514;14.614;2022-11-23T06:19:44;-3.60;69.50
15879;DHT22;61999;51.514;14.614;2022-11-23T06:22:12;-3.60;69.40
15879;DHT22;61999;51.514;14.614;2022-11-23T06:24:42;-3.50;69.40
15879;DHT22;61999;51.514;14.614;2022-11-23T06:27:09;-3.50;69.30
15879;DHT22;61999;51.514;14.614;2022-11-23T06:29:42;-3.60;69.40
15879;DHT22;61999;51.514;14.614;2022-11-23T06:32:10;-3.60;69.60
15879;DHT22;61999;51.514;14.614;2022-11-23T06:34:38;-3.50;69.70
15879;DHT22;61999;51.514;14.614;2022-11-23T06:37:06;-3.50;69.70
15879;DHT22;61999;51.514;14.614;2022-11-23T06:39:33;-3.40;69.50
15879;DHT22;61999;51.514;14.614;2022-11-23T06:42:03;-3.30;69.50
15879;DHT22;61999;51.514;14.614;2022-11-23T06:44:42;-3.30;69.40
15879;DHT22;61999;51.514;14.614;2022-11-23T06:47:10;-3.20;69.30
15879;DHT22;61999;51.514;14.614;2022-11-23T06:49:40;-3.20;69.20
15879;DHT22;61999;51.514;14.614;2022-11-23T06:52:08;-3.20;69.10
15879;DHT22;61999;51.514;14.614;2022-11-23T06:54:36;-3.20;69.10
15879;DHT22;61999;51.514;14.614;2022-11-23T06:57:07;-3.20;69.00
15879;DHT22;61999;51.514;14.614;2022-11-23T06:59:35;-3.20;68.90
15879;DHT22;61999;51.514;14.614;2022-11-23T07:02:06;-3.10;68.90
15879;DHT22;61999;51.514;14.614;2022-11-23T07:04:34;-3.10;68.90
15879;DHT22;61999;51.514;14.614;2022-11-23T07:07:01;-3.10;68.80
15879;DHT22;61999;51.514;14.614;2022-11-23T07:09:29;-3.10;68.80
15879;DHT22;61999;51.514;14.614;2022-11-23T07:12:00;-3.20;68.40
15879;DHT22;61999;51.514;14.614;2022-11-23T07:14:29;-3.20;68.60
15879;DHT22;61999;51.514;14.614;2022-11-23T07:16:57;-3.20;68.70
15879;DHT22;61999;51.514;14.614;2022-11-23T07:19:24;-3.10;68.80
15879;DHT22;61999;51.514;14.614;2022-11-23T07:21:52;-3.10;68.80
15879;DHT22;61999;51.514;14.614;2022-11-23T07:24:20;-3.00;68.90
15879;DHT22;61999;51.514;14.614;2022-11-23T07:26:49;-3.00;68.90
15879;DHT22;61999;51.514;14.614;2022-11-23T07:29:17;-3.00;68.90
15879;DHT22;61999;51.514;14.614;2022-11-23T07:31:46;-2.90;69.00
15879;DHT22;61999;51.514;14.614;2022-11-23T07:34:14;-2.90;69.10
15879;DHT22;61999;51.514;14.614;2022-11-23T07:36:42;-2.90;69.10
15879;DHT22;61999;51.514;14.614;2022-11-23T07:39:10;-2.80;69.20
15879;DHT22;61999;51.514;14.614;2022-11-23T07:41:38;-2.80;69.00
15879;DHT22;61999;51.514;14.614;2022-11-23T07:44:06;-2.80;68.80
15879;DHT22;61999;51.514;14.614;2022-11-23T07:46:34;-2.80;68.70
15879;DHT22;61999;51.514;14.614;2022-11-23T07:49:03;-2.80;68.60
15879;DHT22;61999;51.514;14.614;2022-11-23T07:51:31;-2.90;68.70
15879;DHT22;61999;51.514;14.614;2022-11-23T07:53:59;-3.00;69.10
15879;DHT22;61999;51.514;14.614;2022-11-23T07:56:27;-2.90;69.60
15879;DHT22;61999;51.514;14.614;2022-11-23T07:58:55;-2.80;70.00
15879;DHT22;61999;51.514;14.614;2022-11-23T08:01:23;-2.80;70.00
15879;DHT22;61999;51.514;14.614;2022-11-23T08:03:51;-2.70;70.40
15879;DHT22;61999;51.514;14.614;2022-11-23T08:06:20;-2.60;70.60
15879;DHT22;61999;51.514;14.614;2022-11-23T08:08:48;-2.50;70.80
15879;DHT22;61999;51.514;14.614;2022-11-23T08:11:16;-2.40;70.90
15879;DHT22;61999;51.514;14.614;2022-11-23T08:13:46;-2.30;70.90
15879;DHT22;61999;51.514;14.614;2022-11-23T08:16:13;-2.10;71.10
15879;DHT22;61999;51.514;14.614;2022-11-23T08:18:42;-1.90;71.20
15879;DHT22;61999;51.514;14.614;2022-11-23T08:21:10;-1.90;70.40
15879;DHT22;61999;51.514;14.614;2022-11-23T08:23:39;-1.80;69.20
15879;DHT22;61999;51.514;14.614;2022-11-23T08:26:07;-1.80;68.60
15879;DHT22;61999;51.514;14.614;2022-11-23T08:28:38;-1.70;69.00
15879;DHT22;61999;51.514;14.614;2022-11-23T08:31:07;-1.60;69.30
15879;DHT22;61999;51.514;14.614;2022-11-23T08:33:35;-1.50;69.20
15879;DHT22;61999;51.514;14.614;2022-11-23T08:36:04;-1.30;69.60
15879;DHT22;61999;51.514;14.614;2022-11-23T08:38:33;-1.10;70.30
15879;DHT22;61999;51.514;14.614;2022-11-23T08:41:03;-0.80;71.00
15879;DHT22;61999;51.514;14.614;2022-11-23T08:43:32;-0.60;71.20
15879;DHT22;61999;51.514;14.614;2022-11-23T08:46:00;-0.50;68.40
15879;DHT22;61999;51.514;14.614;2022-11-23T08:48:32;-0.30;67.80
15879;DHT22;61999;51.514;14.614;2022-11-23T08:51:00;-0.20;66.20
15879;DHT22;61999;51.514;14.614;2022-11-23T08:53:28;-0.20;66.10
15879;DHT22;61999;51.514;14.614;2022-11-23T08:55:59;-0.20;66.40
15879;DHT22;61999;51.514;14.614;2022-11-23T08:58:29;0.00;66.30
15879;DHT22;61999;51.514;14.614;2022-11-23T09:00:57;0.20;66.20
15879;DHT22;61999;51.514;14.614;2022-11-23T09:03:25;0.30;65.70
15879;DHT22;61999;51.514;14.614;2022-11-23T09:05:58;0.60;67.10
15879;DHT22;61999;51.514;14.614;2022-11-23T09:08:27;0.80;67.70
15879;DHT22;61999;51.514;14.614;2022-11-23T09:10:59;0.90;68.00
15879;DHT22;61999;51.514;14.614;2022-11-23T09:13:29;1.00;66.50
15879;DHT22;61999;51.514;14.614;2022-11-23T09:15:58;1.00;64.60
15879;DHT22;61999;51.514;14.614;2022-11-23T09:18:28;1.00;63.60
15879;DHT22;61999;51.514;14.614;2022-11-23T09:21:01;0.90;63.90
15879;DHT22;61999;51.514;14.614;2022-11-23T09:23:31;1.00;64.20
15879;DHT22;61999;51.514;14.614;2022-11-23T09:26:00;1.00;64.50
15879;DHT22;61999;51.514;14.614;2022-11-23T09:28:31;1.10;65.40
15879;DHT22;61999;51.514;14.614;2022-11-23T09:31:02;1.10;65.80
15879;DHT22;61999;51.514;14.614;2022-11-23T09:33:31;1.20;66.10
15879;DHT22;61999;51.514;14.614;2022-11-23T09:36:00;1.30;66.20
15879;DHT22;61999;51.514;14.614;2022-11-23T09:38:30;1.40;66.20
15879;DHT22;61999;51.514;14.614;2022-11-23T09:41:39;1.40;64.80
15879;DHT22;61999;51.514;14.614;2022-11-23T09:44:24;1.40;64.40
15879;DHT22;61999;51.514;14.614;2022-11-23T09:47:14;1.50;63.60
15879;DHT22;61999;51.514;14.614;2022-11-23T09:49:59;1.40;63.60
15879;DHT22;61999;51.514;14.614;2022-11-23T09:52:37;1.40;64.40
15879;DHT22;61999;51.514;14.614;2022-11-23T09:55:13;1.50;65.20
15879;DHT22;61999;51.514;14.614;2022-11-23T09:57:46;1.70;66.50
15879;DHT22;61999;51.514;14.614;2022-11-23T10:00:19;1.80;66.10
15879;DHT22;61999;51.514;14.614;2022-11-23T10:02:49;2.00;66.50
15879;DHT22;61999;51.514;14.614;2022-11-23T10:05:20;2.20;67.40
15879;DHT22;61999;51.514;14.614;2022-11-23T10:08:01;2.50;67.30
15879;DHT22;61999;51.514;14.614;2022-11-23T10:10:40;2.70;67.90
15879;DHT22;61999;51.514;14.614;2022-11-23T10:13:25;2.90;68.20
15879;DHT22;61999;51.514;14.614;2022-11-23T10:16:25;3.10;68.20
15879;DHT22;61999;51.514;14.614;2022-11-23T10:19:05;3.40;67.20
15879;DHT22;61999;51.514;14.614;2022-11-23T10:21:47;3.60;63.40
15879;DHT22;61999;51.514;14.614;2022-11-23T10:24:30;3.60;61.20
15879;DHT22;61999;51.514;14.614;2022-11-23T10:27:01;3.70;60.50
15879;DHT22;61999;51.514;14.614;2022-11-23T10:29:34;3.80;61.60
15879;DHT22;61999;51.514;14.614;2022-11-23T10:32:15;3.80;60.60
15879;DHT22;61999;51.514;14.614;2022-11-23T10:34:59;3.80;60.70
15879;DHT22;61999;51.514;14.614;2022-11-23T10:37:32;3.90;62.70
15879;DHT22;61999;51.514;14.614;2022-11-23T10:40:00;4.10;62.90
15879;DHT22;61999;51.514;14.614;2022-11-23T10:42:30;4.20;63.20
15879;DHT22;61999;51.514;14.614;2022-11-23T10:45:03;4.40;64.50
15879;DHT22;61999;51.514;14.614;2022-11-23T10:47:38;4.60;65.00
15879;DHT22;61999;51.514;14.614;2022-11-23T10:50:22;4.90;65.80
15879;DHT22;61999;51.514;14.614;2022-11-23T10:52:56;5.20;66.40
15879;DHT22;61999;51.514;14.614;2022-11-23T10:55:29;5.50;66.80
15879;DHT22;61999;51.514;14.614;2022-11-23T10:57:59;5.80;63.00
15879;DHT22;61999;51.514;14.614;2022-11-23T11:00:28;6.00;57.20
15879;DHT22;61999;51.514;14.614;2022-11-23T11:02:58;6.20;56.20
15879;DHT22;61999;51.514;14.614;2022-11-23T11:05:32;6.30;57.00
15879;DHT22;61999;51.514;14.614;2022-11-23T11:08:25;6.50;56.60
15879;DHT22;61999;51.514;14.614;2022-11-23T11:10:58;6.80;57.50
15879;DHT22;61999;51.514;14.614;2022-11-23T11:13:30;7.20;56.90
15879;DHT22;61999;51.514;14.614;2022-11-23T11:16:18;7.50;54.40
15879;DHT22;61999;51.514;14.614;2022-11-23T11:18:49;7.80;53.80
15879;DHT22;61999;51.514;14.614;2022-11-23T11:21:19;8.00;54.00
15879;DHT22;61999;51.514;14.614;2022-11-23T11:23:52;8.10;52.10
15879;DHT22;61999;51.514;14.614;2022-11-23T11:26:22;8.30;51.70
15879;DHT22;61999;51.514;14.614;2022-11-23T11:28:52;8.30;50.10
15879;DHT22;61999;51.514;14.614;2022-11-23T11:31:42;8.40;52.70
15879;DHT22;61999;51.514;14.614;2022-11-23T11:34:23;8.60;50.70
15879;DHT22;61999;51.514;14.614;2022-11-23T11:36:57;8.70;49.80
15879;DHT22;61999;51.514;14.614;2022-11-23T11:39:34;8.90;49.80
15879;DHT22;61999;51.514;14.614;2022-11-23T11:42:15;9.00;50.10
15879;DHT22;61999;51.514;14.614;2022-11-23T11:44:49;9.10;48.70
15879;DHT22;61999;51.514;14.614;2022-11-23T11:47:26;9.00;48.60
15879;DHT22;61999;51.514;14.614;2022-11-23T11:50:02;9.10;48.20
15879;DHT22;61999;51.514;14.614;2022-11-23T11:52:43;9.00;48.30
15879;DHT22;61999;51.514;14.614;2022-11-23T11:55:17;8.60;48.70
15879;DHT22;61999;51.514;14.614;2022-11-23T11:57:53;8.80;49.20
15879;DHT22;61999;51.514;14.614;2022-11-23T12:00:23;9.00;49.30
15879;DHT22;61999;51.514;14.614;2022-11-23T12:03:00;9.30;48.50
15879;DHT22;61999;51.514;14.614;2022-11-23T12:05:39;9.60;48.70
15879;DHT22;61999;51.514;14.614;2022-11-23T12:08:16;9.80;46.60
15879;DHT22;61999;51.514;14.614;2022-11-23T12:10:50;10.20;48.50
15879;DHT22;61999;51.514;14.614;2022-11-23T12:13:21;10.40;45.60
15879;DHT22;61999;51.514;14.614;2022-11-23T12:15:59;10.50;48.70
15879;DHT22;61999;51.514;14.614;2022-11-23T12:18:49;10.60;47.40
15879;DHT22;61999;51.514;14.614;2022-11-23T12:21:46;10.50;46.40
15879;DHT22;61999;51.514;14.614;2022-11-23T12:24:35;10.30;44.60
15879;DHT22;61999;51.514;14.614;2022-11-23T12:27:23;10.10;45.90
15879;DHT22;61999;51.514;14.614;2022-11-23T12:30:11;9.70;45.60
15879;DHT22;61999;51.514;14.614;2022-11-23T12:32:59;9.50;45.90
15879;DHT22;61999;51.514;14.614;2022-11-23T12:35:57;9.20;47.40
15879;DHT22;61999;51.514;14.614;2022-11-23T12:38:48;8.90;47.20
15879;DHT22;61999;51.514;14.614;2022-11-23T12:41:23;8.60;47.00
15879;DHT22;61999;51.514;14.614;2022-11-23T12:47:13;7.80;48.40
15879;DHT22;61999;51.514;14.614;2022-11-23T12:49:56;7.60;49.00
15879;DHT22;61999;51.514;14.614;2022-11-23T12:52:45;7.30;48.40
15879;DHT22;61999;51.514;14.614;2022-11-23T12:55:34;7.10;48.90
15879;DHT22;61999;51.514;14.614;2022-11-23T12:58:14;6.80;49.10
15879;DHT22;61999;51.514;14.614;2022-11-23T13:00:52;6.50;49.70
15879;DHT22;61999;51.514;14.614;2022-11-23T13:03:55;6.20;50.60
15879;DHT22;61999;51.514;14.614;2022-11-23T13:10:33;5.80;51.30
15879;DHT22;61999;51.514;14.614;2022-11-23T13:13:18;5.60;51.80
15879;DHT22;61999;51.514;14.614;2022-11-23T13:19:19;5.20;52.70
15879;DHT22;61999;51.514;14.614;2022-11-23T13:22:05;5.00;53.00
15879;DHT22;61999;51.514;14.614;2022-11-23T13:24:59;5.00;53.00
15879;DHT22;61999;51.514;14.614;2022-11-23T13:27:54;4.90;53.40
15879;DHT22;61999;51.514;14.614;2022-11-23T13:30:28;4.80;53.60
15879;DHT22;61999;51.514;14.614;2022-11-23T13:33:26;4.90;53.80
15879;DHT22;61999;51.514;14.614;2022-11-23T13:35:59;5.00;53.70
15879;DHT22;61999;51.514;14.614;2022-11-23T13:38:41;5.00;53.70
15879;DHT22;61999;51.514;14.614;2022-11-23T13:44:29;4.60;53.90
15879;DHT22;61999;51.514;14.614;2022-11-23T13:47:00;4.40;54.40
15879;DHT22;61999;51.514;14.614;2022-11-23T13:49:34;4.40;54.60
15879;DHT22;61999;51.514;14.614;2022-11-23T13:52:25;4.30;54.80
15879;DHT22;61999;51.514;14.614;2022-11-23T13:54:59;4.10;55.30
15879;DHT22;61999;51.514;14.614;2022-11-23T13:57:35;4.00;55.60
15879;DHT22;61999;51.514;14.614;2022-11-23T14:03:47;3.80;56.20
15879;DHT22;61999;51.514;14.614;2022-11-23T14:06:23;4.00;56.00
15879;DHT22;61999;51.514;14.614;2022-11-23T14:09:01;3.90;56.40
15879;DHT22;61999;51.514;14.614;2022-11-23T14:11:38;4.00;56.40
15879;DHT22;61999;51.514;14.614;2022-11-23T14:14:17;4.00;56.20
15879;DHT22;61999;51.514;14.614;2022-11-23T14:17:09;4.00;56.20
15879;DHT22;61999;51.514;14.614;2022-11-23T14:20:06;4.00;56.20
15879;DHT22;61999;51.514;14.614;2022-11-23T14:22:56;4.10;56.30
15879;DHT22;61999;51.514;14.614;2022-11-23T14:25:44;4.10;56.30
15879;DHT22;61999;51.514;14.614;2022-11-23T14:28:34;4.10;56.50
15879;DHT22;61999;51.514;14.614;2022-11-23T14:31:19;4.10;56.30
15879;DHT22;61999;51.514;14.614;2022-11-23T14:34:00;4.10;56.30
15879;DHT22;61999;51.514;14.614;2022-11-23T14:36:42;4.10;56.20
15879;DHT22;61999;51.514;14.614;2022-11-23T14:39:44;4.10;56.20
15879;DHT22;61999;51.514;14.614;2022-11-23T14:42:24;4.10;56.20
15879;DHT22;61999;51.514;14.614;2022-11-23T14:44:55;4.10;56.70
15879;DHT22;61999;51.514;14.614;2022-11-23T14:47:29;4.00;56.80
15879;DHT22;61999;51.514;14.614;2022-11-23T14:49:59;3.90;57.10
15879;DHT22;61999;51.514;14.614;2022-11-23T14:52:30;3.90;56.90
15879;DHT22;61999;51.514;14.614;2022-11-23T14:55:03;3.80;56.80
15879;DHT22;61999;51.514;14.614;2022-11-23T14:57:38;3.90;56.80
15879;DHT22;61999;51.514;14.614;2022-11-23T15:00:23;3.80;57.10
15879;DHT22;61999;51.514;14.614;2022-11-23T15:02:56;3.80;57.20
15879;DHT22;61999;51.514;14.614;2022-11-23T15:05:38;3.60;57.70
15879;DHT22;61999;51.514;14.614;2022-11-23T15:08:11;3.50;58.00
15879;DHT22;61999;51.514;14.614;2022-11-23T15:10:46;3.40;58.40
15879;DHT22;61999;51.514;14.614;2022-11-23T15:13:20;3.30;58.60
15879;DHT22;61999;51.514;14.614;2022-11-23T15:15:51;3.20;59.00
15879;DHT22;61999;51.514;14.614;2022-11-23T15:18:28;3.20;58.80
15879;DHT22;61999;51.514;14.614;2022-11-23T15:21:01;3.10;58.60
15879;DHT22;61999;51.514;14.614;2022-11-23T15:23:34;3.10;59.10
15879;DHT22;61999;51.514;14.614;2022-11-23T15:26:05;3.00;59.50
15879;DHT22;61999;51.514;14.614;2022-11-23T15:28:49;2.80;59.80
15879;DHT22;61999;51.514;14.614;2022-11-23T15:31:28;2.70;60.10
15879;DHT22;61999;51.514;14.614;2022-11-23T15:34:01;2.70;59.90
15879;DHT22;61999;51.514;14.614;2022-11-23T15:36:35;2.60;60.60
15879;DHT22;61999;51.514;14.614;2022-11-23T15:39:06;2.50;61.00
15879;DHT22;61999;51.514;14.614;2022-11-23T15:41:40;2.50;60.10
15879;DHT22;61999;51.514;14.614;2022-11-23T15:44:15;2.50;60.60
15879;DHT22;61999;51.514;14.614;2022-11-23T15:46:45;2.40;60.80
15879;DHT22;61999;51.514;14.614;2022-11-23T15:49:15;2.40;60.80
15879;DHT22;61999;51.514;14.614;2022-11-23T15:51:45;2.40;60.90
15879;DHT22;61999;51.514;14.614;2022-11-23T15:54:17;2.30;61.30
15879;DHT22;61999;51.514;14.614;2022-11-23T15:56:49;2.40;61.60
15879;DHT22;61999;51.514;14.614;2022-11-23T15:59:27;2.40;60.90
15879;DHT22;61999;51.514;14.614;2022-11-23T16:01:58;2.40;60.90
15879;DHT22;61999;51.514;14.614;2022-11-23T16:04:29;2.20;61.30
15879;DHT22;61999;51.514;14.614;2022-11-23T16:07:15;2.20;62.20
15879;DHT22;61999;51.514;14.614;2022-11-23T16:09:45;2.10;61.90
15879;DHT22;61999;51.514;14.614;2022-11-23T16:12:24;2.00;62.00
15879;DHT22;61999;51.514;14.614;2022-11-23T16:14:55;2.00;62.20